F/V Matmaco — FVNS — position and weather

sailwx.info

Track history (hours):
 
Tides and Currents Weather Stations Pressure Air Temp Water Temp Dewpoint Dewpoint Depression Visibility Wind Speed Wind Dir Waves Ship Positions

F/V Matmaco

Last reported at 2016-May-18 17:33 UTC. Time now 2016-May-28 08:01 UTC.
Position N 47°20' W 002°31'.
Warning: this ship's position is 9 days out of date.

Length 20 m.

Type: Other ship. MMSI: 228194000.

Date/timePositionNaut miles runAvg speedWind from/ knotsBaromVisibWave heightAir tempDewpointWater temp
2016-May-18 17:33N 47°20' W 002°31'1 0.3
2016-May-18 15:30N 47°20' W 002°31'3 2.8
2016-May-18 14:32N 47°18' W 002°31'0 0.1
2016-May-18 13:15N 47°18' W 002°31'0 0.0
2016-May-18 12:25N 47°18' W 002°31'0 0.0
2016-May-17 09:30N 47°18' W 002°31'0 0.0
2016-May-17 08:30N 47°18' W 002°31'0 0.0
2016-May-17 07:30N 47°18' W 002°31'0 0.0
2016-May-17 06:30N 47°18' W 002°31'0 0.0
2016-May-17 05:30N 47°18' W 002°31'0 0.0
2016-May-17 04:30N 47°18' W 002°31'0 0.0
2016-May-17 03:30N 47°18' W 002°31'0 0.0
2016-May-17 02:30N 47°18' W 002°31'0 0.0
2016-May-17 01:30N 47°18' W 002°31'3 3.2
2016-May-17 00:33N 47°17' W 002°35'9 9.4
2016-May-16 23:33N 47°09' W 002°41'9 9.2
2016-May-16 22:33N 47°01' W 002°48'26 3.2
2016-May-16 14:11N 46°44' W 003°18'24 1.6
2016-May-15 23:08N 46°29' W 002°50'6 0.3
2016-May-15 06:33N 46°34' W 002°53'12 9.5
2016-May-15 05:18N 46°45' W 002°48'10 9.6
2016-May-15 04:19N 46°55' W 002°44'7 9.9
2016-May-15 03:33N 47°02' W 002°41'1210.9
2016-May-15 02:30N 47°13' W 002°36'7 7.0
2016-May-15 01:33N 47°19' W 002°31'2 1.9
2016-May-15 00:33N 47°18' W 002°34'9 8.6
2016-May-14 23:33N 47°11' W 002°40'9 9.3
2016-May-14 22:33N 47°02' W 002°47'13 0.8
2016-May-14 06:27N 46°53' W 003°01'9 9.6
2016-May-14 05:33N 47°00' W 002°54'9 9.1
2016-May-14 04:33N 47°08' W 002°46'9 8.9
2016-May-14 03:33N 47°15' W 002°38'6 5.7
2016-May-14 02:33N 47°18' W 002°31'0 0.0
2016-May-14 01:32N 47°18' W 002°31'0 0.0
2016-May-14 00:33N 47°18' W 002°31'4 3.8
2016-May-13 23:33N 47°16' W 002°36'9 8.9
2016-May-13 22:33N 47°08' W 002°43'9 9.0
2016-May-13 21:33N 47°01' W 002°49'33 0.8
2016-May-12 03:15N 46°28' W 002°46'25 9.1
2016-May-12 00:29N 46°28' W 002°09'9 9.3
2016-May-11 23:33N 46°28' W 001°56'6 6.4
2016-May-11 22:33N 46°30' W 001°48'0 0.0
2016-May-11 21:33N 46°30' W 001°48'7 6.9
2016-May-11 20:33N 46°26' W 001°56'9 9.2
2016-May-11 19:33N 46°23' W 002°09'28 1.6
2016-May-11 02:10N 46°26' W 002°49'2 3.8
2016-May-11 01:33N 46°23' W 002°50'4 3.8
2016-May-11 00:33N 46°21' W 002°54'5 2.2
2016-May-10 22:24N 46°21' W 002°47'3 3.6
2016-May-10 21:33N 46°24' W 002°49'2 1.5
2016-May-10 20:29N 46°23' W 002°50'30 1.2
2016-May-09 19:33N 46°50' W 003°09'9 9.0
2016-May-09 18:33N 46°57' W 003°01'10 9.5
2016-May-09 17:32N 47°04' W 002°52'7 7.2
2016-May-09 16:32N 47°10' W 002°45'8 8.0
2016-May-09 15:32N 47°16' W 002°37'5 4.8
2016-May-09 14:33N 47°18' W 002°31'  
Track history (hours):
 
Tides and Currents Weather Stations Pressure Air Temp Water Temp Dewpoint Dewpoint Depression Visibility Wind Speed Wind Dir Waves Ship Positions

F/V Matmaco

Last reported at 2016-May-18 17:33 UTC. Time now 2016-May-28 08:01 UTC.
Position N 47°20' W 002°31'.
Warning: this ship's position is 9 days out of date.

Length 20 m.

Type: Other ship. MMSI: 228194000.

Date/timePositionNaut miles runAvg speedWind from/ knotsBaromVisibWave heightAir tempDewpointWater temp
2016-May-18 17:33N 47°20' W 002°31'1 0.3
2016-May-18 15:30N 47°20' W 002°31'3 2.8
2016-May-18 14:32N 47°18' W 002°31'0 0.1
2016-May-18 13:15N 47°18' W 002°31'0 0.0
2016-May-18 12:25N 47°18' W 002°31'0 0.0
2016-May-17 09:30N 47°18' W 002°31'0 0.0
2016-May-17 08:30N 47°18' W 002°31'0 0.0
2016-May-17 07:30N 47°18' W 002°31'0 0.0
2016-May-17 06:30N 47°18' W 002°31'0 0.0
2016-May-17 05:30N 47°18' W 002°31'0 0.0
2016-May-17 04:30N 47°18' W 002°31'0 0.0
2016-May-17 03:30N 47°18' W 002°31'0 0.0
2016-May-17 02:30N 47°18' W 002°31'0 0.0
2016-May-17 01:30N 47°18' W 002°31'3 3.2
2016-May-17 00:33N 47°17' W 002°35'9 9.4
2016-May-16 23:33N 47°09' W 002°41'9 9.2
2016-May-16 22:33N 47°01' W 002°48'26 3.2
2016-May-16 14:11N 46°44' W 003°18'24 1.6
2016-May-15 23:08N 46°29' W 002°50'6 0.3
2016-May-15 06:33N 46°34' W 002°53'12 9.5
2016-May-15 05:18N 46°45' W 002°48'10 9.6
2016-May-15 04:19N 46°55' W 002°44'7 9.9
2016-May-15 03:33N 47°02' W 002°41'1210.9
2016-May-15 02:30N 47°13' W 002°36'7 7.0
2016-May-15 01:33N 47°19' W 002°31'2 1.9
2016-May-15 00:33N 47°18' W 002°34'9 8.6
2016-May-14 23:33N 47°11' W 002°40'9 9.3
2016-May-14 22:33N 47°02' W 002°47'13 0.8
2016-May-14 06:27N 46°53' W 003°01'9 9.6
2016-May-14 05:33N 47°00' W 002°54'9 9.1
2016-May-14 04:33N 47°08' W 002°46'9 8.9
2016-May-14 03:33N 47°15' W 002°38'6 5.7
2016-May-14 02:33N 47°18' W 002°31'0 0.0
2016-May-14 01:32N 47°18' W 002°31'0 0.0
2016-May-14 00:33N 47°18' W 002°31'4 3.8
2016-May-13 23:33N 47°16' W 002°36'9 8.9
2016-May-13 22:33N 47°08' W 002°43'9 9.0
2016-May-13 21:33N 47°01' W 002°49'33 0.8
2016-May-12 03:15N 46°28' W 002°46'25 9.1
2016-May-12 00:29N 46°28' W 002°09'9 9.3
2016-May-11 23:33N 46°28' W 001°56'6 6.4
2016-May-11 22:33N 46°30' W 001°48'0 0.0
2016-May-11 21:33N 46°30' W 001°48'7 6.9
2016-May-11 20:33N 46°26' W 001°56'9 9.2
2016-May-11 19:33N 46°23' W 002°09'28 1.6
2016-May-11 02:10N 46°26' W 002°49'2 3.8
2016-May-11 01:33N 46°23' W 002°50'4 3.8
2016-May-11 00:33N 46°21' W 002°54'5 2.2
2016-May-10 22:24N 46°21' W 002°47'3 3.6
2016-May-10 21:33N 46°24' W 002°49'2 1.5
2016-May-10 20:29N 46°23' W 002°50'30 1.2
2016-May-09 19:33N 46°50' W 003°09'9 9.0
2016-May-09 18:33N 46°57' W 003°01'10 9.5
2016-May-09 17:32N 47°04' W 002°52'7 7.2
2016-May-09 16:32N 47°10' W 002°45'8 8.0
2016-May-09 15:32N 47°16' W 002°37'5 4.8
2016-May-09 14:33N 47°18' W 002°31'  

Dump ship's entire track history